Data for 02/26/2010

Time Sea-Level Adjusted Pressure Absolute Pressure Temperature Relative Humidity Dew Point   
(mb) (inHg) (mb) (inHg) (C) (F) (%) (C) (F)
00:05 1020 30.12 850 25.1 -1.2 29.8 74 -5.3 22.5
00:10 1020 30.12 850 25.1 -0.9 30.4 72 -5.3 22.4
00:15 1020 30.12 850 25.1 -0.8 30.6 74 -4.9 23.2
00:20 1020 30.12 850 25.1 -1 30.2 74 -5 22.9
00:25 1020 30.12 850 25.1 -0.9 30.4 73 -5.2 22.7
00:30 1020 30.12 850 25.1 -0.9 30.3 73 -5.2 22.6
00:35 1020 30.12 850 25.1 -0.9 30.4 72 -5.4 22.3
00:40 1020 30.12 850 25.1 -1.1 30.1 76 -4.8 23.4
00:45 1020 30.12 850 25.1 -1.2 29.8 74 -5.4 22.3
00:50 1020 30.12 850 25.1 -1.2 29.9 74 -5.3 22.5
00:55 1020 30.12 850 25.1 -1.3 29.8 72 -5.7 21.7
01:00 1020 30.12 850 25.1 -1.2 29.8 70 -6 21.2
01:05 1020 30.12 850 25.1 -1.4 29.4 70 -6.2 20.9
01:10 1020 30.12 850 25.1 -1.1 30 68 -6.3 20.7
01:15 1020 30.12 850 25.1 -0.9 30.3 68 -6.1 21
01:20 1020 30.12 850 25.1 -1.1 30 70 -5.9 21.4
01:25 1020 30.12 850 25.1 -1.5 29.3 75 -5.3 22.4
01:30 1020 30.12 850 25.1 -2 28.4 81 -4.9 23.3
01:35 1020 30.12 850 25.1 -2 28.4 80 -5 23
01:40 1020 30.12 850 25.1 -1.5 29.3 76 -5.2 22.6
01:45 1021 30.15 850 25.1 -1.4 29.5 78 -4.8 23.4
01:50 1021 30.15 850 25.1 -1.8 28.7 76 -5.4 22.2
01:55 1021 30.15 850 25.1 -2 28.4 76 -5.8 21.6
02:00 1021 30.15 850 25.1 -2.2 28 75 -6.1 21.1
02:05 1021 30.15 850 25.1 -2.1 28.3 76 -5.7 21.8
02:10 1021 30.15 850 25.1 -2 28.5 79 -5.2 22.7
02:15 1021 30.15 850 25.1 -2.5 27.4 82 -5.3 22.5
02:20 1021 30.15 850 25.1 -2.7 27.2 80 -5.6 21.9
02:25 1021 30.15 850 25.1 -2.8 27 81 -5.6 21.9
02:30 1021 30.15 850 25.1 -2.5 27.4 79 -5.8 21.6
02:35 1021 30.15 850 25.1 -2.2 28 77 -5.7 21.8
02:40 1021 30.15 850 25.1 -2.3 27.8 76 -6 21.3
02:45 1021 30.15 850 25.1 -2.2 28 75 -6 21.2
02:50 1021 30.15 850 25.1 -2.1 28.2 74 -6.1 21.1
02:55 1021 30.15 850 25.1 -2.1 28.2 75 -6 21.3
03:00 1021 30.15 850 25.1 -1.8 28.8 73 -6 21.1
03:05 1021 30.15 850 25.1 -1.6 29.2 70 -6.4 20.5
03:10 1021 30.15 850 25.1 -2 28.3 71 -6.7 19.9
03:15 1021 30.15 850 25.1 -2.3 27.9 71 -6.8 19.7
03:20 1021 30.15 850 25.1 -2.4 27.7 72 -6.7 19.9
03:25 1020 30.12 850 25.1 -2.6 27.3 73 -6.8 19.8
03:30 1020 30.12 850 25.1 -2.9 26.8 73 -7 19.4
03:35 1020 30.12 850 25.1 -3.3 26.1 74 -7.3 18.8
03:40 1020 30.12 850 25.1 -3.4 25.8 73 -7.6 18.3
03:45 1020 30.12 849 25.07 -3.4 25.9 73 -7.5 18.4
03:50 1020 30.12 849 25.07 -3.4 25.8 74 -7.5 18.6
03:55 1020 30.12 849 25.07 -4.2 24.4 76 -7.8 17.9
04:00 1020 30.12 849 25.07 -4.8 23.3 77 -8.3 17.1
04:05 1020 30.12 849 25.07 -4.7 23.5 75 -8.4 16.8
04:10 1020 30.12 849 25.07 -4.3 24.3 74 -8.3 17.1
04:15 1020 30.12 849 25.07 -4.2 24.4 73 -8.4 16.8
04:20 1020 30.12 849 25.07 -3.8 25.2 70 -8.5 16.6
04:25 1020 30.12 850 25.1 -3.5 25.7 70 -8.2 17.2
04:30 1020 30.12 850 25.1 -3.7 25.4 70 -8.4 17
04:35 1020 30.12 850 25.1 -4 24.9 72 -8.3 17
04:40 1020 30.12 850 25.1 -4.3 24.2 73 -8.4 16.8
04:45 1021 30.15 850 25.1 -4.6 23.7 74 -8.5 16.6
04:50 1021 30.15 850 25.1 -4.8 23.3 75 -8.6 16.4
04:55 1021 30.15 850 25.1 -4.9 23.2 75 -8.7 16.3
05:00 1021 30.15 850 25.1 -4.9 23.2 74 -8.7 16.3
05:05 1021 30.15 850 25.1 -4.9 23.2 74 -8.9 16
05:10 1021 30.15 850 25.1 -4.9 23.3 73 -8.9 15.9
05:15 1021 30.15 850 25.1 -4.7 23.5 73 -8.9 15.9
05:20 1021 30.15 850 25.1 -4.6 23.7 72 -8.9 15.9
05:25 1021 30.15 850 25.1 -4.6 23.7 72 -8.9 16.1
05:30 1021 30.15 850 25.1 -4.8 23.4 73 -8.9 15.9
05:35 1021 30.15 850 25.1 -4.9 23.2 72 -9.1 15.6
05:40 1021 30.15 850 25.1 -4.9 23.1 73 -9.1 15.7
05:45 1021 30.15 850 25.1 -4.9 23.2 72 -9.3 15.3
05:50 1021 30.15 850 25.1 -4.8 23.4 72 -9.1 15.7
05:55 1021 30.15 850 25.1 -5.1 22.9 72 -9.3 15.3
06:00 1021 30.15 850 25.1 -5.2 22.7 72 -9.4 15.1
06:05 1021 30.15 850 25.1 -5 23 72 -9.3 15.2
06:10 1021 30.15 850 25.1 -5 23 72 -9.3 15.2
06:15 1021 30.15 850 25.1 -5 23.1 71 -9.4 15.1
06:20 1021 30.15 850 25.1 -4.7 23.6 70 -9.4 15.1
06:25 1021 30.15 850 25.1 -4.5 23.9 69 -9.3 15.2
06:30 1021 30.15 850 25.1 -4.7 23.6 72 -9 15.9
06:35 1021 30.15 850 25.1 -4.7 23.6 72 -9.1 15.7
06:40 1021 30.15 850 25.1 -5 23 73 -9.1 15.6
06:45 1021 30.15 850 25.1 -4.8 23.3 72 -9.2 15.4
06:50 1021 30.15 850 25.1 -4.7 23.5 72 -9.1 15.7
06:55 1021 30.15 850 25.1 -5.1 22.9 73 -9.2 15.5
07:00 1021 30.15 850 25.1 -5.3 22.5 74 -9.2 15.4
07:05 1021 30.15 850 25.1 -5.2 22.6 75 -8.9 15.9
07:10 1021 30.15 850 25.1 -5.2 22.6 75 -8.9 15.9
07:15 1021 30.15 850 25.1 -5.3 22.5 75 -9.1 15.6
07:20 1021 30.15 850 25.1 -5.3 22.4 74 -9.2 15.4
07:25 1021 30.15 850 25.1 -5.3 22.5 74 -9.3 15.3
07:30 1021 30.15 850 25.1 -5.2 22.7 73 -9.3 15.2
07:35 1021 30.15 850 25.1 -5.1 22.9 71 -9.5 15
07:40 1021 30.15 850 25.1 -5.2 22.7 71 -9.6 14.7
07:45 1021 30.15 850 25.1 -5.1 22.9 70 -9.8 14.4
07:50 1021 30.15 850 25.1 -4.9 23.2 69 -9.7 14.6
07:55 1021 30.15 850 25.1 -4.5 23.8 67 -9.7 14.6
08:00 1021 30.15 850 25.1 -4.3 24.2 67 -9.6 14.7
08:05 1021 30.15 850 25.1 -3.9 25 65 -9.6 14.8
08:10 1021 30.15 850 25.1 -3.9 24.9 65 -9.6 14.8
08:15 1021 30.15 850 25.1 -3.8 25.1 64 -9.7 14.6
08:20 1021 30.15 850 25.1 -3.8 25.2 63 -9.8 14.3
08:25 1021 30.15 850 25.1 -3.4 25.8 61 -9.9 14.3
08:30 1021 30.15 850 25.1 -3.1 26.4 61 -9.7 14.6
08:35 1021 30.15 850 25.1 -2.8 27 59 -9.8 14.4
08:40 1021 30.15 850 25.1 -2.4 27.8 58 -9.5 14.9
08:45 1021 30.15 850 25.1 -2 28.4 58 -9.2 15.4
08:50 1021 30.15 850 25.1 -1.7 29 56 -9.3 15.3
08:55 1021 30.15 850 25.1 -1.5 29.4 54 -9.6 14.6
09:00 1021 30.15 850 25.1 -1 30.3 53 -9.5 15
09:05 1021 30.15 850 25.1 -0.8 30.6 53 -9.3 15.3
09:10 1021 30.15 850 25.1 -0.8 30.5 52 -9.6 14.8
09:15 1021 30.15 850 25.1 -0.8 30.6 52 -9.3 15.2
09:20 1021 30.15 850 25.1 -0.4 31.4 51 -9.3 15.3
09:25 1021 30.15 850 25.1 -0.1 31.9 51 -9 15.8
09:30 1021 30.15 850 25.1 0.2 32.4 50 -9 15.8
09:35 1021 30.15 850 25.1 0 32.1 53 -8.5 16.6
09:40 1021 30.15 850 25.1 0.7 33.3 49 -8.9 16
09:45 1021 30.15 850 25.1 0.6 33.1 50 -8.6 16.5
09:50 1021 30.15 850 25.1 0.8 33.4 48 -9.1 15.6
09:55 1021 30.15 850 25.1 1.1 34 50 -8.2 17.3
10:00 1021 30.15 850 25.1 1.6 34.9 47 -8.6 16.5
10:05 1021 30.15 850 25.1 1.8 35.3 46 -8.7 16.3
10:10 1021 30.15 850 25.1 1.9 35.4 45 -8.8 16.2
10:15 1021 30.15 850 25.1 2.2 36 46 -8.2 17.2
10:20 1021 30.15 850 25.1 2.5 36.5 47 -7.7 18.2
10:25 1021 30.15 850 25.1 2.3 36.2 47 -7.8 18
10:30 1021 30.15 850 25.1 2.8 37 49 -7 19.4
10:35 1020 30.12 850 25.1 2.4 36.3 56 -5.5 22.1
10:40 1020 30.12 850 25.1 2.2 36 53 -6.5 20.4
10:45 1020 30.12 850 25.1 2.1 35.7 53 -6.6 20.1
10:50 1020 30.12 850 25.1 2.3 36.1 51 -6.9 19.5
10:55 1020 30.12 849 25.07 2.9 37.3 51 -6.2 20.8
11:00 1020 30.12 849 25.07 3.3 38 49 -6.3 20.6
11:05 1020 30.12 849 25.07 3.5 38.4 50 -6 21.1
11:10 1020 30.12 849 25.07 4 39.3 45 -6.9 19.5
11:15 1020 30.12 849 25.07 4 39.2 46 -6.5 20.3
11:20 1020 30.12 849 25.07 3.5 38.3 46 -7.1 19.2
11:25 1020 30.12 849 25.07 2.7 36.8 48 -7.3 18.9
11:30 1020 30.12 849 25.07 3.4 38.1 45 -7.3 18.8
11:35 1020 30.12 849 25.07 3.8 38.8 45 -7.1 19.2
11:40 1020 30.12 849 25.07 3.7 38.7 44 -7.5 18.5
11:45 1020 30.12 849 25.07 3.3 38 46 -7.1 19.1
11:50 1020 30.12 849 25.07 3.7 38.6 44 -7.4 18.7
11:55 1020 30.12 849 25.07 3.7 38.6 48 -6.4 20.5
12:00 1020 30.12 849 25.07 3.1 37.6 52 -5.8 21.6
12:05 1020 30.12 849 25.07 3.5 38.3 45 -7.5 18.6
12:10 1020 30.12 849 25.07 3.9 39 46 -6.8 19.7
12:15 1020 30.12 849 25.07 4 39.1 47 -6.4 20.5
12:20 1020 30.12 849 25.07 4.7 40.4 43 -6.8 19.8
12:25 1020 30.12 849 25.07 4.3 39.7 46 -6.4 20.5
12:30 1019 30.09 849 25.07 3.4 38.2 48 -6.6 20.1
12:35 1019 30.09 849 25.07 3.6 38.5 45 -7.1 19.2
12:40 1019 30.09 848 25.04 3.9 39.1 43 -7.4 18.7
12:45 1019 30.09 848 25.04 4.2 39.5 46 -6.4 20.5
12:50 1019 30.09 848 25.04 2.7 36.9 51 -6.4 20.4
12:55 1019 30.09 848 25.04 3 37.5 49 -6.7 19.9
13:00 1019 30.09 848 25.04 2.7 36.8 46 -7.7 18.1
13:05 1019 30.09 848 25.04 2.2 35.9 49 -7.4 18.7
13:10 1019 30.09 848 25.04 3 37.4 52 -5.9 21.4
13:15 1019 30.09 848 25.04 3.6 38.4 49 -6.3 20.7
13:20 1019 30.09 848 25.04 3.5 38.3 51 -5.8 21.6
13:25 1019 30.09 848 25.04 2.9 37.3 49 -6.8 19.7
13:30 1019 30.09 848 25.04 3.3 37.9 49 -6.5 20.3
13:35 1019 30.09 848 25.04 2.9 37.2 49 -6.9 19.6
13:40 1018 30.06 848 25.04 2.7 36.9 49 -6.9 19.6
13:45 1018 30.06 848 25.04 3.5 38.3 47 -6.8 19.8
13:50 1018 30.06 847 25.01 3.7 38.6 50 -5.8 21.6
13:55 1018 30.06 847 25.01 3.8 38.9 49 -5.9 21.4
14:00 1018 30.06 847 25.01 4.3 39.8 46 -6.3 20.6
14:05 1018 30.06 847 25.01 4.5 40 45 -6.5 20.3
14:10 1018 30.06 847 25.01 4.8 40.7 42 -7.1 19.2
14:15 1018 30.06 847 25.01 5.2 41.3 43 -6.5 20.4
14:20 1018 30.06 847 25.01 4.6 40.4 44 -6.5 20.2
14:25 1018 30.06 847 25.01 4.9 40.8 45 -6.1 21
14:30 1018 30.06 847 25.01 5.2 41.3 44 -6.1 21.1
14:35 1017 30.03 847 25.01 5.2 41.4 46 -5.5 22
14:40 1017 30.03 847 25.01 5.3 41.5 42 -6.6 20.2
14:45 1017 30.03 847 25.01 5.2 41.4 43 -6.5 20.4
14:50 1017 30.03 847 25.01 5.2 41.4 42 -6.6 20.1
14:55 1017 30.03 847 25.01 4.8 40.6 44 -6.4 20.5
15:00 1017 30.03 846 24.98 4.6 40.2 44 -6.7 19.9
15:05 1017 30.03 846 24.98 4.3 39.8 45 -6.4 20.4
15:10 1017 30.03 846 24.98 4.4 39.9 45 -6.4 20.4
15:15 1017 30.03 846 24.98 4.3 39.8 43 -7.3 18.9
15:20 1017 30.03 846 24.98 4.6 40.3 44 -6.5 20.2
15:25 1017 30.03 846 24.98 5 40.9 42 -6.8 19.7
15:30 1017 30.03 846 24.98 4.5 40.2 41 -7.8 18
15:35 1017 30.03 846 24.98 4.3 39.8 42 -7.5 18.4
15:40 1017 30.03 846 24.98 4.1 39.4 41 -8 17.6
15:45 1017 30.03 846 24.98 4 39.2 41 -8 17.5
15:50 1017 30.03 846 24.98 3.5 38.2 44 -7.8 18
15:55 1017 30.03 846 24.98 3.3 37.9 43 -8.3 17.1
16:00 1017 30.03 846 24.98 2.9 37.3 43 -8.3 17
16:05 1017 30.03 846 24.98 2.7 36.8 45 -8.2 17.2
16:10 1017 30.03 846 24.98 2.2 35.9 50 -7.1 19.3
16:15 1017 30.03 846 24.98 2.3 36.2 46 -8.1 17.4
16:20 1017 30.03 846 24.98 2.8 37 44 -8.4 16.8
16:25 1017 30.03 846 24.98 2.7 36.9 43 -8.7 16.4
16:30 1017 30.03 846 24.98 2.7 36.9 41 -9.2 15.5
16:35 1017 30.03 846 24.98 2.4 36.3 43 -8.8 16.1
16:40 1017 30.03 846 24.98 2.2 35.9 43 -9.1 15.6
16:45 1017 30.03 846 24.98 2 35.6 46 -8.5 16.7
16:50 1017 30.03 846 24.98 1.9 35.5 47 -8.3 17
16:55 1017 30.03 846 24.98 2.1 35.7 45 -8.6 16.6
17:00 1017 30.03 846 24.98 2.2 35.9 46 -8.3 17
17:05 1017 30.03 846 24.98 2.1 35.9 45 -8.7 16.4
17:10 1017 30.03 846 24.98 2.2 35.9 47 -8 17.6
17:15 1017 30.03 846 24.98 2 35.7 45 -8.6 16.5
17:20 1017 30.03 846 24.98 2.1 35.7 45 -8.8 16.2
17:25 1017 30.03 846 24.98 1.9 35.5 46 -8.6 16.5
17:30 1017 30.03 846 24.98 1.8 35.2 45 -8.8 16.1
17:35 1017 30.03 846 24.98 1.8 35.3 45 -8.8 16.1
17:40 1016 30 846 24.98 1.9 35.4 45 -8.9 16.1
17:45 1016 30 846 24.98 1.9 35.4 43 -9.3 15.2
17:50 1016 30 846 24.98 1.7 35 46 -8.8 16.2
17:55 1016 30 846 24.98 1.5 34.8 42 -9.9 14.1
18:00 1016 30 845 24.95 1.3 34.4 43 -9.8 14.4
18:05 1016 30 845 24.95 1.2 34.2 42 -10.3 13.5
18:10 1016 30 845 24.95 1.1 34 48 -8.9 16.1
18:15 1016 30 845 24.95 0.8 33.5 50 -8.6 16.6
18:20 1016 30 845 24.95 0.8 33.5 50 -8.5 16.8
18:25 1016 30 845 24.95 0.9 33.6 51 -8.1 17.5
18:30 1016 30 845 24.95 0.8 33.5 51 -8.1 17.3
18:35 1016 30 845 24.95 0.8 33.5 51 -8.1 17.5
18:40 1016 30 845 24.95 0.7 33.3 52 -8.1 17.4
18:45 1016 30 845 24.95 0.6 33.1 52 -8 17.6
18:50 1016 30 845 24.95 0.6 33.2 50 -8.5 16.6
18:55 1016 30 846 24.98 0.8 33.4 50 -8.5 16.7
19:00 1016 30 846 24.98 0.8 33.5 49 -8.8 16.2
19:05 1016 30 845 24.95 0.8 33.5 52 -8.1 17.5
19:10 1016 30 845 24.95 0.4 32.8 53 -8 17.6
19:15 1016 30 845 24.95 0 32.1 53 -8.5 16.7
19:20 1016 30 845 24.95 -0 31.9 53 -8.6 16.5
19:25 1016 30 845 24.95 -0 32 52 -8.7 16.4
19:30 1016 30 845 24.95 -0.1 31.9 52 -8.8 16.1
19:35 1016 30 845 24.95 -0 31.9 51 -9 15.9
19:40 1016 30 845 24.95 -0 31.9 51 -9 15.8
19:45 1016 30 845 24.95 -0 31.9 50 -9.1 15.5
19:50 1016 30 845 24.95 0.1 32.1 51 -8.9 15.9
19:55 1016 30 845 24.95 0.1 32.1 52 -8.6 16.5
20:00 1016 30 845 24.95 -0 32 52 -8.7 16.4
20:05 1016 30 845 24.95 -0 31.9 52 -8.7 16.3
20:10 1016 30 845 24.95 0 32 52 -8.7 16.3
20:15 1016 30 845 24.95 -0.2 31.7 51 -9.1 15.7
20:20 1016 30 845 24.95 -0.2 31.6 52 -8.9 15.9
20:25 1016 30 845 24.95 -0.3 31.5 50 -9.4 15.1
20:30 1015 29.97 845 24.95 -0.2 31.6 51 -9.3 15.3
20:35 1015 29.97 845 24.95 -0.3 31.5 51 -9.2 15.5
20:40 1015 29.97 845 24.95 -0.2 31.6 51 -9 15.7
20:45 1015 29.97 845 24.95 -0 32 51 -9 15.9
20:50 1015 29.97 844 24.92 0.2 32.3 50 -9 15.8
20:55 1015 29.97 845 24.95 0.3 32.6 49 -9.2 15.5
21:00 1015 29.97 844 24.92 0.7 33.2 48 -9 15.8
21:05 1015 29.97 844 24.92 0.5 32.9 50 -8.7 16.4
21:10 1015 29.97 844 24.92 0.1 32.3 51 -9 15.9
21:15 1015 29.97 844 24.92 0.3 32.5 50 -9 15.8
21:20 1015 29.97 844 24.92 0.3 32.6 50 -8.8 16.2
21:25 1015 29.97 844 24.92 0.2 32.3 52 -8.7 16.4
21:30 1015 29.97 844 24.92 0.2 32.3 50 -9 15.8
21:35 1015 29.97 844 24.92 0.3 32.5 49 -9.2 15.4
21:40 1015 29.97 844 24.92 0.5 32.8 47 -9.5 14.9
21:45 1015 29.97 844 24.92 0.6 33 49 -9 15.8
21:50 1015 29.97 844 24.92 0.4 32.7 48 -9.3 15.3
21:55 1015 29.97 844 24.92 0.5 32.8 48 -9.2 15.5
22:00 1015 29.97 844 24.92 0.3 32.5 48 -9.5 14.8
22:05 1015 29.97 844 24.92 0.1 32.1 50 -9.1 15.7
22:10 1015 29.97 844 24.92 0.1 32.2 49 -9.3 15.2
22:15 1015 29.97 844 24.92 0.2 32.4 49 -9.2 15.5
22:20 1015 29.97 844 24.92 0.1 32.1 50 -9.2 15.4
22:25 1015 29.97 844 24.92 -0.2 31.6 49 -9.6 14.8
22:30 1015 29.97 844 24.92 -0.4 31.2 51 -9.4 15.1
22:35 1015 29.97 844 24.92 -0.7 30.7 49 -10.1 13.8
22:40 1015 29.97 844 24.92 -0.4 31.2 50 -9.7 14.6
22:45 1015 29.97 844 24.92 -0.2 31.6 49 -9.7 14.5
22:50 1015 29.97 844 24.92 -0.1 31.9 48 -9.8 14.4
22:55 1015 29.97 844 24.92 0.5 32.8 47 -9.6 14.6
23:00 1014 29.94 844 24.92 0.2 32.3 48 -9.5 14.9
23:05 1014 29.94 844 24.92 0.1 32.1 49 -9.5 14.9
23:10 1014 29.94 844 24.92 0.1 32.2 49 -9.4 15
23:15 1014 29.94 844 24.92 -0 31.9 50 -9.4 15.1
23:20 1014 29.94 843 24.89 -0.3 31.5 51 -9.2 15.4
23:25 1014 29.94 843 24.89 -0.6 31 53 -9 15.9
23:30 1014 29.94 843 24.89 -1 30.3 52 -9.7 14.5
23:35 1014 29.94 843 24.89 -0.4 31.2 51 -9.3 15.2
23:40 1014 29.94 843 24.89 -0.7 30.7 54 -9 15.8
23:45 1014 29.94 843 24.89 -1 30.3 54 -9.2 15.4
23:50 1014 29.94 843 24.89 -1 30.3 54 -9.2 15.4
23:55 1014 29.94 843 24.89 -0.4 31.2 50 -9.6 14.7
24:00 1014 29.94 843 24.89 -0 31.9 51 -9.1 15.6